createdAt,value
2022-10-30T00:05:30.657Z,87.20
2022-10-30T00:13:38.852Z,87.00
2022-10-30T00:21:44.147Z,87.20
2022-10-30T00:29:52.149Z,87.60
2022-10-30T00:37:57.676Z,87.30
2022-10-30T00:46:10.551Z,87.40
2022-10-30T00:54:18.535Z,86.80
2022-10-30T01:02:26.789Z,86.60
2022-10-30T01:10:32.231Z,86.90
2022-10-30T01:18:49.825Z,86.40
2022-10-30T01:27:07.941Z,86.70
2022-10-30T01:35:22.082Z,87.50
2022-10-30T01:43:27.655Z,88.40
2022-10-30T01:51:48.098Z,89.70
2022-10-30T01:59:57.304Z,90.00
2022-10-30T02:08:05.464Z,89.50
2022-10-30T02:16:13.717Z,89.20
2022-10-30T02:24:23.908Z,89.20
2022-10-30T02:32:29.301Z,88.40
2022-10-30T02:40:37.255Z,88.30
2022-10-30T02:48:42.572Z,88.00
2022-10-30T02:56:50.588Z,87.80
2022-10-30T03:04:55.939Z,87.70
2022-10-30T03:13:04.646Z,87.50
2022-10-30T03:21:14.251Z,88.00
2022-10-30T03:29:22.156Z,87.20
2022-10-30T03:37:28.027Z,88.50
2022-10-30T03:45:36.787Z,90.10
2022-10-30T03:53:44.042Z,90.00
2022-10-30T04:01:52.146Z,90.10
2022-10-30T04:09:57.732Z,90.30
2022-10-30T04:18:06.556Z,90.20
2022-10-30T04:26:15.259Z,90.40
2022-10-30T04:34:26.493Z,90.10
2022-10-30T04:42:37.057Z,90.60
2022-10-30T04:50:45.787Z,90.40
2022-10-30T04:58:57.914Z,90.40
2022-10-30T05:07:07.224Z,90.10
2022-10-30T05:15:13.112Z,90.30
2022-10-30T05:23:21.571Z,90.70
2022-10-30T05:31:26.969Z,90.10
2022-10-30T05:39:53.771Z,89.90
2022-10-30T05:48:06.034Z,89.50
2022-10-30T05:56:21.365Z,89.40
2022-10-30T06:04:27.839Z,89.20
2022-10-30T06:12:36.583Z,88.70
2022-10-30T06:21:02.112Z,87.80
2022-10-30T06:29:39.356Z,86.20
2022-10-30T06:37:49.379Z,86.20
2022-10-30T06:45:57.745Z,85.20
2022-10-30T06:54:03.423Z,84.60
2022-10-30T07:02:20.412Z,84.20
2022-10-30T07:10:30.678Z,82.00
2022-10-30T07:18:59.372Z,81.50
2022-10-30T07:27:07.457Z,79.60
2022-10-30T07:35:18.743Z,78.40
2022-10-30T07:43:50.460Z,77.90
2022-10-30T07:52:24.309Z,79.20
2022-10-30T08:00:30.947Z,78.80
2022-10-30T08:08:47.984Z,79.80
2022-10-30T08:17:05.311Z,80.80
2022-10-30T08:25:13.639Z,81.60
2022-10-30T08:33:20.375Z,82.40
2022-10-30T08:41:37.051Z,82.50
2022-10-30T08:49:43.214Z,80.80
2022-10-30T08:57:52.007Z,67.40
2022-10-30T09:05:57.767Z,55.00
2022-10-30T09:14:24.240Z,47.50
2022-10-30T09:22:29.575Z,47.00
2022-10-30T09:30:37.504Z,41.70
2022-10-30T09:38:43.843Z,40.20
2022-10-30T09:47:03.511Z,38.00
2022-10-30T09:55:21.557Z,36.40
2022-10-30T10:03:44.785Z,35.00
2022-10-30T10:12:12.688Z,33.60
2022-10-30T10:20:30.827Z,33.40
2022-10-30T10:28:52.516Z,39.30
2022-10-30T10:37:13.316Z,46.20
2022-10-30T10:45:32.893Z,49.80
2022-10-30T10:53:47.473Z,53.50
2022-10-30T11:01:59.231Z,55.80
2022-10-30T11:10:16.278Z,58.80
2022-10-30T11:18:21.949Z,59.90
2022-10-30T11:26:36.080Z,61.60
2022-10-30T11:34:41.597Z,61.40
2022-10-30T11:42:52.580Z,61.80
2022-10-30T11:51:01.867Z,62.70
2022-10-30T11:59:09.949Z,65.40
2022-10-30T12:07:27.345Z,66.00
2022-10-30T12:15:38.899Z,65.50
2022-10-30T12:23:44.359Z,63.70
2022-10-30T12:31:57.631Z,63.00
2022-10-30T12:40:07.159Z,64.90
2022-10-30T12:48:23.598Z,65.40
2022-10-30T12:56:33.273Z,65.50
2022-10-30T13:04:45.166Z,65.00
2022-10-30T13:12:54.773Z,64.90
2022-10-30T13:21:10.767Z,65.10
2022-10-30T13:29:23.878Z,66.70
2022-10-30T13:37:36.519Z,66.80
2022-10-30T13:45:58.169Z,66.10
2022-10-30T13:54:13.296Z,65.60
2022-10-30T14:02:31.966Z,65.40
2022-10-30T14:10:59.369Z,66.50
2022-10-30T14:19:07.329Z,67.20
2022-10-30T14:27:24.188Z,68.10
2022-10-30T14:35:51.279Z,68.80
2022-10-30T14:44:09.307Z,69.00
2022-10-30T14:52:25.842Z,69.90
2022-10-30T15:00:47.381Z,70.10
2022-10-30T15:09:05.944Z,70.40
2022-10-30T15:17:25.643Z,71.00
2022-10-30T15:25:36.751Z,71.00
2022-10-30T15:33:44.729Z,71.50
2022-10-30T15:41:53.936Z,72.00
2022-10-30T15:50:02.998Z,72.30
2022-10-30T15:58:08.666Z,73.00
2022-10-30T16:06:23.448Z,73.10
2022-10-30T16:14:30.721Z,73.70
2022-10-30T16:22:42.136Z,74.10
2022-10-30T16:30:48.785Z,74.60
2022-10-30T16:38:58.649Z,74.70
2022-10-30T16:47:08.792Z,74.80
2022-10-30T16:55:23.516Z,75.20
2022-10-30T17:03:30.781Z,75.30
2022-10-30T17:11:43.801Z,75.70
2022-10-30T17:19:51.428Z,76.20
2022-10-30T17:27:59.625Z,76.80
2022-10-30T17:36:05.257Z,77.60
2022-10-30T17:44:21.557Z,78.70
2022-10-30T17:52:28.222Z,79.10
2022-10-30T18:00:36.102Z,79.30
2022-10-30T18:08:43.913Z,79.80
2022-10-30T18:16:55.621Z,79.80
2022-10-30T18:25:01.195Z,80.00
2022-10-30T18:33:09.054Z,80.20
2022-10-30T18:41:18.429Z,80.10
2022-10-30T18:49:29.016Z,80.10
2022-10-30T18:57:34.327Z,79.90
2022-10-30T19:05:45.592Z,80.20
2022-10-30T19:13:51.204Z,80.10
2022-10-30T19:21:59.144Z,80.40
2022-10-30T19:30:04.432Z,80.80
2022-10-30T19:38:13.492Z,81.00
2022-10-30T19:46:18.826Z,81.10
2022-10-30T19:54:26.716Z,82.00
2022-10-30T20:02:32.022Z,81.60
2022-10-30T20:10:43.888Z,81.40
2022-10-30T20:18:50.388Z,81.30
2022-10-30T20:26:59.507Z,81.20
2022-10-30T20:35:08.760Z,81.50
2022-10-30T20:43:21.388Z,81.50
2022-10-30T20:51:26.740Z,82.10
2022-10-30T20:59:34.583Z,82.60
2022-10-30T21:07:39.934Z,82.80
2022-10-30T21:15:47.881Z,83.00
2022-10-30T21:23:58.450Z,82.90
2022-10-30T21:32:09.474Z,83.10
2022-10-30T21:40:16.165Z,83.30
2022-10-30T21:48:24.005Z,83.80
2022-10-30T21:56:31.441Z,83.80
2022-10-30T22:04:40.273Z,83.80
2022-10-30T22:12:45.572Z,83.90
2022-10-30T22:20:53.538Z,83.90
2022-10-30T22:29:01.178Z,84.30
2022-10-30T22:37:09.086Z,85.00
2022-10-30T22:45:36.897Z,84.70
2022-10-30T22:53:46.007Z,86.40
2022-10-30T23:11:00.309Z,85.10
2022-10-30T23:19:05.802Z,85.00
2022-10-30T23:27:13.642Z,85.10
2022-10-30T23:35:18.946Z,85.50
2022-10-30T23:43:26.936Z,85.10
2022-10-30T23:51:32.663Z,85.40
2022-10-30T23:59:40.528Z,84.90
